TimeEDT,TemperatureF,Dew PointF,Humidity,Sea Level PressureIn,VisibilityMPH,Wind Direction,Wind SpeedMPH,Gust SpeedMPH,PrecipitationIn,Events,Conditions,WindDirDegrees,DateUTC
12:51 AM,43.0,26.1,51,30.48,10.0,SE,5.8,-,N/A,,Clear,140,2013-04-22 04:51:00
1:51 AM,42.1,25.0,51,30.47,10.0,SSE,9.2,-,N/A,,Clear,150,2013-04-22 05:51:00
2:51 AM,41.0,24.1,51,30.45,10.0,SE,6.9,-,N/A,,Clear,140,2013-04-22 06:51:00
3:51 AM,41.0,24.1,51,30.45,10.0,SSE,5.8,-,N/A,,Clear,150,2013-04-22 07:51:00
4:51 AM,36.0,25.0,64,30.45,10.0,Calm,Calm,-,N/A,,Clear,0,2013-04-22 08:51:00
5:51 AM,33.1,25.0,72,30.45,10.0,Calm,Calm,-,N/A,,Clear,0,2013-04-22 09:51:00
6:51 AM,32.0,26.1,79,30.46,10.0,Calm,Calm,-,N/A,,Clear,0,2013-04-22 10:51:00
7:51 AM,36.0,28.9,76,30.46,10.0,Calm,Calm,-,N/A,,Clear,0,2013-04-22 11:51:00
8:51 AM,45.0,25.0,46,30.45,10.0,SE,5.8,-,N/A,,Clear,130,2013-04-22 12:51:00
9:51 AM,48.0,25.0,41,30.45,10.0,SE,4.6,-,N/A,,Clear,130,2013-04-22 13:51:00
10:51 AM,52.0,23.0,32,30.44,10.0,Variable,5.8,-,N/A,,Clear,0,2013-04-22 14:51:00
11:51 AM,54.0,23.0,30,30.41,10.0,Calm,Calm,-,N/A,,Clear,0,2013-04-22 15:51:00
12:51 PM,57.9,24.1,27,30.38,10.0,Variable,5.8,-,N/A,,Clear,0,2013-04-22 16:51:00
1:51 PM,59.0,21.0,23,30.35,10.0,Variable,3.5,-,N/A,,Clear,0,2013-04-22 17:51:00
2:51 PM,60.1,19.0,20,30.33,10.0,Variable,3.5,-,N/A,,Clear,0,2013-04-22 18:51:00
3:51 PM,61.0,21.0,21,30.31,10.0,ESE,9.2,-,N/A,,Clear,110,2013-04-22 19:51:00
4:51 PM,62.1,17.1,18,30.29,10.0,SSE,9.2,-,N/A,,Clear,160,2013-04-22 20:51:00
5:51 PM,61.0,17.1,18,30.28,10.0,Variable,4.6,-,N/A,,Clear,0,2013-04-22 21:51:00
6:51 PM,59.0,16.0,19,30.28,10.0,Variable,6.9,-,N/A,,Clear,0,2013-04-22 22:51:00
7:51 PM,54.0,17.1,23,30.29,10.0,ESE,6.9,-,N/A,,Clear,120,2013-04-22 23:51:00
8:51 PM,52.0,19.0,27,30.30,10.0,Variable,6.9,-,N/A,,Clear,0,2013-04-23 00:51:00
9:51 PM,50.0,23.0,35,30.32,10.0,Variable,6.9,-,N/A,,Clear,0,2013-04-23 01:51:00
10:51 PM,48.9,25.0,39,30.31,10.0,SSE,6.9,-,N/A,,Clear,160,2013-04-23 02:51:00
11:51 PM,43.0,27.0,53,30.31,10.0,SE,3.5,-,N/A,,Clear,130,2013-04-23 03:51:00